sensor_id;sensor_type;location;lat;lon;timestamp;P1;durP1;ratioP1;P2;durP2;ratioP2
74753;SDS011;63271;53.340;-6.260;2023-03-01T07:01:52;4.20;;;1.00;;
74753;SDS011;63271;53.340;-6.260;2023-03-01T07:04:18;3.47;;;1.27;;
74753;SDS011;63271;53.340;-6.260;2023-03-01T07:06:46;4.75;;;1.00;;
74753;SDS011;63271;53.340;-6.260;2023-03-01T07:09:20;7.72;;;1.55;;
74753;SDS011;63271;53.340;-6.260;2023-03-01T07:11:51;8.95;;;1.60;;
74753;SDS011;63271;53.340;-6.260;2023-03-01T07:14:17;6.85;;;0.70;;
74753;SDS011;63271;53.340;-6.260;2023-03-01T07:16:42;7.07;;;1.10;;
74753;SDS011;63271;53.340;-6.260;2023-03-01T07:19:08;4.82;;;1.10;;
74753;SDS011;63271;53.340;-6.260;2023-03-01T07:21:38;6.97;;;1.55;;
74753;SDS011;63271;53.340;-6.260;2023-03-01T07:24:05;5.90;;;0.90;;
74753;SDS011;63271;53.340;-6.260;2023-03-01T07:26:31;9.85;;;0.95;;
74753;SDS011;63271;53.340;-6.260;2023-03-01T07:28:58;3.17;;;0.60;;
74753;SDS011;63271;53.340;-6.260;2023-03-01T07:31:24;5.93;;;0.75;;
74753;SDS011;63271;53.340;-6.260;2023-03-01T07:33:55;4.32;;;0.90;;
74753;SDS011;63271;53.340;-6.260;2023-03-01T07:36:25;5.93;;;0.90;;
74753;SDS011;63271;53.340;-6.260;2023-03-01T07:38:51;2.78;;;1.00;;
74753;SDS011;63271;53.340;-6.260;2023-03-01T07:41:20;7.35;;;1.45;;
74753;SDS011;63271;53.340;-6.260;2023-03-01T07:43:46;7.05;;;0.80;;
74753;SDS011;63271;53.340;-6.260;2023-03-01T07:46:14;4.38;;;0.73;;
74753;SDS011;63271;53.340;-6.260;2023-03-01T07:48:40;9.35;;;0.90;;
74753;SDS011;63271;53.340;-6.260;2023-03-01T07:51:06;3.50;;;0.65;;
74753;SDS011;63271;53.340;-6.260;2023-03-01T07:53:32;6.32;;;1.13;;
74753;SDS011;63271;53.340;-6.260;2023-03-01T07:56:06;6.72;;;0.95;;
74753;SDS011;63271;53.340;-6.260;2023-03-01T07:58:36;9.30;;;1.17;;
74753;SDS011;63271;53.340;-6.260;2023-03-01T08:01:02;8.50;;;1.10;;
74753;SDS011;63271;53.340;-6.260;2023-03-01T08:03:29;9.50;;;0.73;;
74753;SDS011;63271;53.340;-6.260;2023-03-01T08:05:54;10.15;;;0.85;;
74753;SDS011;63271;53.340;-6.260;2023-03-01T08:08:20;7.78;;;1.23;;
74753;SDS011;63271;53.340;-6.260;2023-03-01T08:10:48;4.00;;;0.60;;
74753;SDS011;63271;53.340;-6.260;2023-03-01T08:13:13;4.95;;;0.60;;
74753;SDS011;63271;53.340;-6.260;2023-03-01T08:15:40;7.68;;;0.90;;
74753;SDS011;63271;53.340;-6.260;2023-03-01T08:18:05;4.80;;;0.90;;
74753;SDS011;63271;53.340;-6.260;2023-03-01T08:20:31;3.47;;;0.73;;
74753;SDS011;63271;53.340;-6.260;2023-03-01T08:23:02;8.52;;;0.95;;
74753;SDS011;63271;53.340;-6.260;2023-03-01T08:25:27;5.60;;;0.82;;
74753;SDS011;63271;53.340;-6.260;2023-03-01T08:27:52;4.25;;;0.73;;
74753;SDS011;63271;53.340;-6.260;2023-03-01T08:30:18;8.25;;;1.75;;
74753;SDS011;63271;53.340;-6.260;2023-03-01T08:32:43;11.95;;;1.40;;
74753;SDS011;63271;53.340;-6.260;2023-03-01T08:35:16;6.88;;;0.90;;
74753;SDS011;63271;53.340;-6.260;2023-03-01T08:37:42;7.28;;;1.60;;
74753;SDS011;63271;53.340;-6.260;2023-03-01T08:40:10;13.45;;;1.95;;
74753;SDS011;63271;53.340;-6.260;2023-03-01T08:42:41;4.90;;;1.27;;
74753;SDS011;63271;53.340;-6.260;2023-03-01T08:45:09;8.48;;;1.58;;
74753;SDS011;63271;53.340;-6.260;2023-03-01T08:47:35;3.72;;;1.27;;
74753;SDS011;63271;53.340;-6.260;2023-03-01T08:50:06;7.85;;;1.15;;
74753;SDS011;63271;53.340;-6.260;2023-03-01T08:52:35;6.95;;;1.17;;
74753;SDS011;63271;53.340;-6.260;2023-03-01T08:55:03;5.82;;;1.10;;
74753;SDS011;63271;53.340;-6.260;2023-03-01T08:57:29;4.18;;;1.17;;
74753;SDS011;63271;53.340;-6.260;2023-03-01T08:59:57;4.80;;;1.02;;
74753;SDS011;63271;53.340;-6.260;2023-03-01T09:02:25;3.33;;;1.27;;
74753;SDS011;63271;53.340;-6.260;2023-03-01T09:04:51;8.13;;;2.10;;
74753;SDS011;63271;53.340;-6.260;2023-03-01T09:07:16;4.50;;;0.77;;
74753;SDS011;63271;53.340;-6.260;2023-03-01T09:09:44;1.83;;;0.50;;
74753;SDS011;63271;53.340;-6.260;2023-03-01T09:12:10;3.95;;;0.77;;
74753;SDS011;63271;53.340;-6.260;2023-03-01T09:14:37;4.72;;;1.15;;
74753;SDS011;63271;53.340;-6.260;2023-03-01T09:17:03;7.22;;;1.40;;
74753;SDS011;63271;53.340;-6.260;2023-03-01T09:19:29;4.90;;;1.55;;
74753;SDS011;63271;53.340;-6.260;2023-03-01T09:21:57;6.15;;;1.02;;
74753;SDS011;63271;53.340;-6.260;2023-03-01T09:24:25;2.92;;;0.80;;
74753;SDS011;63271;53.340;-6.260;2023-03-01T09:26:52;7.25;;;1.15;;
74753;SDS011;63271;53.340;-6.260;2023-03-01T09:29:18;3.95;;;1.95;;
74753;SDS011;63271;53.340;-6.260;2023-03-01T09:31:46;8.35;;;1.10;;
74753;SDS011;63271;53.340;-6.260;2023-03-01T09:34:14;10.60;;;1.00;;
74753;SDS011;63271;53.340;-6.260;2023-03-01T09:36:47;7.60;;;0.98;;
74753;SDS011;63271;53.340;-6.260;2023-03-01T09:39:13;5.15;;;0.90;;
74753;SDS011;63271;53.340;-6.260;2023-03-01T09:41:47;5.82;;;1.30;;
74753;SDS011;63271;53.340;-6.260;2023-03-01T09:46:56;8.32;;;1.60;;
74753;SDS011;63271;53.340;-6.260;2023-03-01T09:49:23;2.85;;;0.52;;
74753;SDS011;63271;53.340;-6.260;2023-03-01T09:54:38;5.35;;;0.80;;
74753;SDS011;63271;53.340;-6.260;2023-03-01T09:57:20;5.13;;;1.10;;
74753;SDS011;63271;53.340;-6.260;2023-03-01T10:02:59;2.63;;;0.65;;
74753;SDS011;63271;53.340;-6.260;2023-03-01T10:11:01;6.07;;;1.00;;
74753;SDS011;63271;53.340;-6.260;2023-03-01T10:16:16;5.13;;;0.80;;
74753;SDS011;63271;53.340;-6.260;2023-03-01T10:18:51;4.10;;;0.80;;
74753;SDS011;63271;53.340;-6.260;2023-03-01T10:21:20;5.22;;;1.48;;
74753;SDS011;63271;53.340;-6.260;2023-03-01T10:23:51;7.43;;;1.10;;
74753;SDS011;63271;53.340;-6.260;2023-03-01T10:26:32;4.55;;;1.08;;
74753;SDS011;63271;53.340;-6.260;2023-03-01T10:29:09;5.13;;;1.50;;
74753;SDS011;63271;53.340;-6.260;2023-03-01T10:34:20;2.50;;;0.88;;
74753;SDS011;63271;53.340;-6.260;2023-03-01T10:37:18;3.88;;;0.90;;
74753;SDS011;63271;53.340;-6.260;2023-03-01T10:39:56;4.80;;;0.90;;
74753;SDS011;63271;53.340;-6.260;2023-03-01T10:42:28;12.65;;;0.98;;
74753;SDS011;63271;53.340;-6.260;2023-03-01T10:44:56;3.20;;;0.57;;
74753;SDS011;63271;53.340;-6.260;2023-03-01T10:47:22;6.93;;;1.08;;
74753;SDS011;63271;53.340;-6.260;2023-03-01T10:49:55;5.82;;;1.05;;
74753;SDS011;63271;53.340;-6.260;2023-03-01T10:55:00;5.05;;;1.20;;
74753;SDS011;63271;53.340;-6.260;2023-03-01T10:57:45;10.00;;;1.00;;
74753;SDS011;63271;53.340;-6.260;2023-03-01T11:00:24;5.82;;;1.25;;
74753;SDS011;63271;53.340;-6.260;2023-03-01T11:03:03;12.52;;;1.33;;
74753;SDS011;63271;53.340;-6.260;2023-03-01T11:05:36;4.43;;;1.08;;
74753;SDS011;63271;53.340;-6.260;2023-03-01T11:08:02;8.82;;;1.20;;
74753;SDS011;63271;53.340;-6.260;2023-03-01T11:10:32;10.32;;;1.20;;
74753;SDS011;63271;53.340;-6.260;2023-03-01T11:15:31;6.05;;;1.20;;
74753;SDS011;63271;53.340;-6.260;2023-03-01T11:17:59;4.72;;;0.85;;
74753;SDS011;63271;53.340;-6.260;2023-03-01T11:20:29;6.78;;;1.48;;
74753;SDS011;63271;53.340;-6.260;2023-03-01T11:22:57;5.13;;;1.35;;
74753;SDS011;63271;53.340;-6.260;2023-03-01T11:26:07;5.93;;;1.30;;
74753;SDS011;63271;53.340;-6.260;2023-03-01T11:28:27;5.75;;;1.10;;
74753;SDS011;63271;53.340;-6.260;2023-03-01T11:33:33;3.50;;;1.08;;
74753;SDS011;63271;53.340;-6.260;2023-03-01T11:36:18;4.30;;;0.90;;
74753;SDS011;63271;53.340;-6.260;2023-03-01T11:39:04;8.13;;;0.80;;
74753;SDS011;63271;53.340;-6.260;2023-03-01T11:41:38;3.35;;;1.00;;
74753;SDS011;63271;53.340;-6.260;2023-03-01T11:44:17;3.70;;;0.80;;
74753;SDS011;63271;53.340;-6.260;2023-03-01T11:49:58;2.75;;;0.80;;
74753;SDS011;63271;53.340;-6.260;2023-03-01T12:11:58;9.52;;;1.60;;
74753;SDS011;63271;53.340;-6.260;2023-03-01T12:25:52;8.85;;;1.95;;
74753;SDS011;63271;53.340;-6.260;2023-03-01T12:34:16;9.18;;;1.50;;
74753;SDS011;63271;53.340;-6.260;2023-03-01T12:37:24;13.00;;;1.75;;
74753;SDS011;63271;53.340;-6.260;2023-03-01T12:42:31;9.75;;;1.92;;
74753;SDS011;63271;53.340;-6.260;2023-03-01T12:50:20;3.72;;;1.15;;
74753;SDS011;63271;53.340;-6.260;2023-03-01T12:52:51;6.80;;;1.00;;
74753;SDS011;63271;53.340;-6.260;2023-03-01T12:55:39;2.70;;;1.02;;
74753;SDS011;63271;53.340;-6.260;2023-03-01T12:58:06;7.93;;;1.67;;
74753;SDS011;63271;53.340;-6.260;2023-03-01T13:06:35;18.40;;;3.55;;
74753;SDS011;63271;53.340;-6.260;2023-03-01T13:11:49;8.25;;;1.90;;
74753;SDS011;63271;53.340;-6.260;2023-03-01T13:16:48;3.88;;;1.35;;
74753;SDS011;63271;53.340;-6.260;2023-03-01T13:19:20;4.15;;;1.17;;
74753;SDS011;63271;53.340;-6.260;2023-03-01T13:21:48;7.95;;;1.25;;
74753;SDS011;63271;53.340;-6.260;2023-03-01T13:32:18;3.63;;;1.20;;
74753;SDS011;63271;53.340;-6.260;2023-03-01T13:34:54;5.07;;;1.23;;
74753;SDS011;63271;53.340;-6.260;2023-03-01T13:37:35;9.48;;;1.40;;
74753;SDS011;63271;53.340;-6.260;2023-03-01T13:42:54;4.88;;;1.30;;
74753;SDS011;63271;53.340;-6.260;2023-03-01T13:48:08;12.23;;;1.70;;
74753;SDS011;63271;53.340;-6.260;2023-03-01T13:50:37;4.90;;;1.20;;
74753;SDS011;63271;53.340;-6.260;2023-03-01T13:53:09;11.02;;;3.63;;
74753;SDS011;63271;53.340;-6.260;2023-03-01T13:55:45;6.47;;;1.50;;
74753;SDS011;63271;53.340;-6.260;2023-03-01T14:00:56;6.32;;;1.45;;
74753;SDS011;63271;53.340;-6.260;2023-03-01T14:03:26;12.73;;;1.67;;
74753;SDS011;63271;53.340;-6.260;2023-03-01T14:06:07;6.57;;;1.50;;
74753;SDS011;63271;53.340;-6.260;2023-03-01T14:08:40;6.68;;;1.25;;
74753;SDS011;63271;53.340;-6.260;2023-03-01T14:21:42;11.93;;;4.10;;
74753;SDS011;63271;53.340;-6.260;2023-03-01T14:24:22;3.65;;;1.17;;
74753;SDS011;63271;53.340;-6.260;2023-03-01T14:26:52;19.70;;;9.77;;
74753;SDS011;63271;53.340;-6.260;2023-03-01T14:29:26;29.77;;;14.68;;
74753;SDS011;63271;53.340;-6.260;2023-03-01T14:31:53;16.88;;;7.75;;
74753;SDS011;63271;53.340;-6.260;2023-03-01T14:34:21;6.63;;;1.60;;
74753;SDS011;63271;53.340;-6.260;2023-03-01T14:36:50;4.70;;;1.08;;
74753;SDS011;63271;53.340;-6.260;2023-03-01T14:39:19;4.15;;;1.13;;
74753;SDS011;63271;53.340;-6.260;2023-03-01T14:41:47;5.82;;;1.00;;
74753;SDS011;63271;53.340;-6.260;2023-03-01T14:44:19;7.07;;;1.48;;
74753;SDS011;63271;53.340;-6.260;2023-03-01T14:46:51;8.95;;;1.02;;
74753;SDS011;63271;53.340;-6.260;2023-03-01T14:49:20;8.18;;;1.08;;
74753;SDS011;63271;53.340;-6.260;2023-03-01T14:52:01;6.18;;;1.48;;
74753;SDS011;63271;53.340;-6.260;2023-03-01T14:54:44;4.90;;;1.00;;
74753;SDS011;63271;53.340;-6.260;2023-03-01T14:57:15;9.50;;;2.47;;
74753;SDS011;63271;53.340;-6.260;2023-03-01T14:59:42;12.30;;;1.50;;
74753;SDS011;63271;53.340;-6.260;2023-03-01T15:02:15;4.38;;;1.50;;
74753;SDS011;63271;53.340;-6.260;2023-03-01T15:04:48;7.57;;;1.33;;
74753;SDS011;63271;53.340;-6.260;2023-03-01T15:07:14;3.35;;;1.20;;
74753;SDS011;63271;53.340;-6.260;2023-03-01T15:09:40;7.88;;;1.80;;
74753;SDS011;63271;53.340;-6.260;2023-03-01T15:17:54;5.97;;;1.85;;
74753;SDS011;63271;53.340;-6.260;2023-03-01T15:20:22;7.43;;;2.08;;
74753;SDS011;63271;53.340;-6.260;2023-03-01T15:22:55;6.90;;;1.65;;
74753;SDS011;63271;53.340;-6.260;2023-03-01T15:25:23;7.72;;;1.60;;
74753;SDS011;63271;53.340;-6.260;2023-03-01T15:27:53;9.98;;;1.52;;
74753;SDS011;63271;53.340;-6.260;2023-03-01T15:30:25;6.93;;;1.45;;
74753;SDS011;63271;53.340;-6.260;2023-03-01T15:33:35;9.55;;;2.72;;
74753;SDS011;63271;53.340;-6.260;2023-03-01T15:35:44;6.47;;;1.40;;
74753;SDS011;63271;53.340;-6.260;2023-03-01T15:41:00;7.68;;;1.38;;
74753;SDS011;63271;53.340;-6.260;2023-03-01T15:43:39;8.50;;;1.92;;
74753;SDS011;63271;53.340;-6.260;2023-03-01T15:46:15;8.13;;;1.40;;
74753;SDS011;63271;53.340;-6.260;2023-03-01T15:48:46;11.23;;;2.45;;
74753;SDS011;63271;53.340;-6.260;2023-03-01T15:51:14;7.47;;;1.60;;
74753;SDS011;63271;53.340;-6.260;2023-03-01T15:53:40;9.10;;;1.40;;
74753;SDS011;63271;53.340;-6.260;2023-03-01T15:58:36;8.67;;;2.07;;
74753;SDS011;63271;53.340;-6.260;2023-03-01T16:01:07;5.05;;;1.63;;
74753;SDS011;63271;53.340;-6.260;2023-03-01T16:03:37;4.00;;;1.33;;
74753;SDS011;63271;53.340;-6.260;2023-03-01T16:06:05;3.78;;;1.30;;
74753;SDS011;63271;53.340;-6.260;2023-03-01T16:08:33;7.13;;;1.60;;
74753;SDS011;63271;53.340;-6.260;2023-03-01T16:11:01;4.47;;;1.00;;
74753;SDS011;63271;53.340;-6.260;2023-03-01T16:13:30;15.88;;;7.32;;
74753;SDS011;63271;53.340;-6.260;2023-03-01T16:15:59;6.55;;;1.27;;
74753;SDS011;63271;53.340;-6.260;2023-03-01T16:18:29;6.93;;;1.90;;
74753;SDS011;63271;53.340;-6.260;2023-03-01T16:21:02;1.92;;;0.98;;
74753;SDS011;63271;53.340;-6.260;2023-03-01T16:23:27;12.13;;;1.30;;
74753;SDS011;63271;53.340;-6.260;2023-03-01T16:25:53;3.25;;;1.00;;
74753;SDS011;63271;53.340;-6.260;2023-03-01T16:28:18;8.80;;;1.65;;
74753;SDS011;63271;53.340;-6.260;2023-03-01T16:30:49;10.55;;;4.50;;
74753;SDS011;63271;53.340;-6.260;2023-03-01T16:33:17;13.65;;;3.33;;
74753;SDS011;63271;53.340;-6.260;2023-03-01T16:35:45;7.35;;;1.27;;
74753;SDS011;63271;53.340;-6.260;2023-03-01T16:38:10;6.85;;;1.10;;
74753;SDS011;63271;53.340;-6.260;2023-03-01T16:40:36;7.30;;;1.23;;
74753;SDS011;63271;53.340;-6.260;2023-03-01T16:43:07;10.00;;;1.90;;
74753;SDS011;63271;53.340;-6.260;2023-03-01T16:45:34;8.93;;;1.27;;
74753;SDS011;63271;53.340;-6.260;2023-03-01T16:48:00;9.98;;;1.52;;
74753;SDS011;63271;53.340;-6.260;2023-03-01T16:50:26;15.35;;;5.47;;
74753;SDS011;63271;53.340;-6.260;2023-03-01T16:52:52;6.85;;;1.70;;
74753;SDS011;63271;53.340;-6.260;2023-03-01T16:55:18;11.32;;;1.73;;
74753;SDS011;63271;53.340;-6.260;2023-03-01T16:57:45;14.85;;;2.67;;
74753;SDS011;63271;53.340;-6.260;2023-03-01T17:00:14;14.75;;;2.00;;
74753;SDS011;63271;53.340;-6.260;2023-03-01T17:02:40;13.90;;;2.47;;
74753;SDS011;63271;53.340;-6.260;2023-03-01T17:05:06;9.18;;;1.88;;
74753;SDS011;63271;53.340;-6.260;2023-03-01T17:07:38;13.20;;;2.13;;
74753;SDS011;63271;53.340;-6.260;2023-03-01T17:10:05;17.73;;;5.65;;
74753;SDS011;63271;53.340;-6.260;2023-03-01T17:12:34;7.65;;;1.48;;
74753;SDS011;63271;53.340;-6.260;2023-03-01T17:14:59;19.50;;;3.40;;
74753;SDS011;63271;53.340;-6.260;2023-03-01T17:17:27;31.95;;;2.47;;
74753;SDS011;63271;53.340;-6.260;2023-03-01T17:19:53;10.90;;;2.20;;
74753;SDS011;63271;53.340;-6.260;2023-03-01T17:22:18;10.13;;;2.03;;
74753;SDS011;63271;53.340;-6.260;2023-03-01T17:24:44;15.68;;;3.88;;
74753;SDS011;63271;53.340;-6.260;2023-03-01T17:27:10;10.48;;;2.97;;
74753;SDS011;63271;53.340;-6.260;2023-03-01T17:29:37;10.70;;;2.97;;
74753;SDS011;63271;53.340;-6.260;2023-03-01T17:32:03;10.35;;;3.00;;
74753;SDS011;63271;53.340;-6.260;2023-03-01T17:34:33;9.85;;;2.15;;
74753;SDS011;63271;53.340;-6.260;2023-03-01T17:36:59;9.25;;;1.95;;
74753;SDS011;63271;53.340;-6.260;2023-03-01T17:39:27;19.48;;;2.83;;
74753;SDS011;63271;53.340;-6.260;2023-03-01T17:42:00;13.95;;;2.80;;
74753;SDS011;63271;53.340;-6.260;2023-03-01T17:44:28;12.30;;;2.45;;
74753;SDS011;63271;53.340;-6.260;2023-03-01T17:46:56;11.10;;;3.03;;
74753;SDS011;63271;53.340;-6.260;2023-03-01T17:49:24;17.20;;;3.92;;
74753;SDS011;63271;53.340;-6.260;2023-03-01T17:51:50;15.00;;;2.75;;
74753;SDS011;63271;53.340;-6.260;2023-03-01T17:54:17;9.88;;;2.97;;
74753;SDS011;63271;53.340;-6.260;2023-03-01T17:56:45;9.30;;;2.05;;
74753;SDS011;63271;53.340;-6.260;2023-03-01T17:59:13;14.32;;;2.88;;
74753;SDS011;63271;53.340;-6.260;2023-03-01T18:01:40;12.90;;;2.20;;
74753;SDS011;63271;53.340;-6.260;2023-03-01T18:04:06;11.20;;;2.65;;
74753;SDS011;63271;53.340;-6.260;2023-03-01T18:06:32;19.95;;;3.70;;
74753;SDS011;63271;53.340;-6.260;2023-03-01T18:08:57;7.43;;;2.50;;
74753;SDS011;63271;53.340;-6.260;2023-03-01T18:11:23;11.07;;;2.78;;
74753;SDS011;63271;53.340;-6.260;2023-03-01T18:13:50;21.17;;;3.17;;
74753;SDS011;63271;53.340;-6.260;2023-03-01T18:16:19;11.90;;;3.30;;
74753;SDS011;63271;53.340;-6.260;2023-03-01T18:18:51;9.95;;;3.00;;
74753;SDS011;63271;53.340;-6.260;2023-03-01T18:21:19;21.25;;;4.57;;
74753;SDS011;63271;53.340;-6.260;2023-03-01T18:23:50;19.75;;;4.22;;
74753;SDS011;63271;53.340;-6.260;2023-03-01T18:26:16;8.57;;;2.80;;
74753;SDS011;63271;53.340;-6.260;2023-03-01T18:28:43;18.50;;;4.30;;
74753;SDS011;63271;53.340;-6.260;2023-03-01T18:31:12;10.88;;;4.00;;
74753;SDS011;63271;53.340;-6.260;2023-03-01T18:33:42;10.05;;;3.22;;
74753;SDS011;63271;53.340;-6.260;2023-03-01T18:36:14;10.10;;;3.13;;
74753;SDS011;63271;53.340;-6.260;2023-03-01T18:38:42;13.05;;;3.08;;
74753;SDS011;63271;53.340;-6.260;2023-03-01T18:41:08;10.70;;;3.17;;
74753;SDS011;63271;53.340;-6.260;2023-03-01T18:43:33;17.55;;;3.42;;
74753;SDS011;63271;53.340;-6.260;2023-03-01T18:46:01;18.50;;;3.00;;
74753;SDS011;63271;53.340;-6.260;2023-03-01T18:48:29;13.32;;;3.38;;
74753;SDS011;63271;53.340;-6.260;2023-03-01T18:51:05;15.55;;;3.85;;
74753;SDS011;63271;53.340;-6.260;2023-03-01T18:53:37;14.18;;;3.15;;
74753;SDS011;63271;53.340;-6.260;2023-03-01T18:56:02;15.60;;;3.03;;
74753;SDS011;63271;53.340;-6.260;2023-03-01T18:58:28;10.75;;;3.17;;
74753;SDS011;63271;53.340;-6.260;2023-03-01T19:00:58;13.35;;;2.25;;
74753;SDS011;63271;53.340;-6.260;2023-03-01T19:03:34;11.93;;;2.55;;
74753;SDS011;63271;53.340;-6.260;2023-03-01T19:06:02;10.02;;;3.38;;
74753;SDS011;63271;53.340;-6.260;2023-03-01T19:08:29;15.55;;;3.30;;
74753;SDS011;63271;53.340;-6.260;2023-03-01T19:10:58;16.67;;;3.90;;
74753;SDS011;63271;53.340;-6.260;2023-03-01T19:13:25;11.95;;;2.50;;
74753;SDS011;63271;53.340;-6.260;2023-03-01T19:16:01;9.65;;;1.85;;
74753;SDS011;63271;53.340;-6.260;2023-03-01T19:18:36;11.65;;;3.03;;
74753;SDS011;63271;53.340;-6.260;2023-03-01T19:21:07;13.90;;;3.03;;
74753;SDS011;63271;53.340;-6.260;2023-03-01T19:23:33;15.02;;;3.17;;
74753;SDS011;63271;53.340;-6.260;2023-03-01T19:26:03;13.05;;;3.67;;
74753;SDS011;63271;53.340;-6.260;2023-03-01T19:28:33;11.60;;;3.70;;
74753;SDS011;63271;53.340;-6.260;2023-03-01T19:31:02;11.43;;;3.60;;
74753;SDS011;63271;53.340;-6.260;2023-03-01T19:33:31;7.90;;;3.00;;
74753;SDS011;63271;53.340;-6.260;2023-03-01T19:36:01;10.02;;;3.05;;
74753;SDS011;63271;53.340;-6.260;2023-03-01T19:38:29;10.52;;;2.67;;
74753;SDS011;63271;53.340;-6.260;2023-03-01T19:40:55;6.03;;;2.08;;
74753;SDS011;63271;53.340;-6.260;2023-03-01T19:43:23;11.82;;;2.83;;
74753;SDS011;63271;53.340;-6.260;2023-03-01T19:45:50;9.27;;;2.72;;
74753;SDS011;63271;53.340;-6.260;2023-03-01T19:48:18;15.35;;;4.20;;
74753;SDS011;63271;53.340;-6.260;2023-03-01T19:50:44;9.35;;;3.05;;
74753;SDS011;63271;53.340;-6.260;2023-03-01T19:53:10;15.68;;;4.60;;
74753;SDS011;63271;53.340;-6.260;2023-03-01T19:55:38;18.50;;;5.40;;
74753;SDS011;63271;53.340;-6.260;2023-03-01T19:58:04;43.78;;;9.52;;
74753;SDS011;63271;53.340;-6.260;2023-03-01T20:00:31;17.20;;;5.72;;
